createdAt,value
2023-02-11T00:01:35.501Z,-9.35
2023-02-11T00:04:07.388Z,-9.34
2023-02-11T00:06:36.291Z,-9.35
2023-02-11T00:09:05.626Z,-9.37
2023-02-11T00:11:34.302Z,-9.39
2023-02-11T00:14:05.610Z,-9.42
2023-02-11T00:16:33.973Z,-9.46
2023-02-11T00:19:06.376Z,-9.47
2023-02-11T00:21:35.305Z,-9.45
2023-02-11T00:24:04.309Z,-9.43
2023-02-11T00:26:35.323Z,-9.37
2023-02-11T00:29:04.670Z,-9.30
2023-02-11T00:31:34.041Z,-9.24
2023-02-11T00:34:02.917Z,-9.21
2023-02-11T00:36:31.429Z,-9.15
2023-02-11T00:39:00.799Z,-9.09
2023-02-11T00:41:30.509Z,-9.06
2023-02-11T00:44:02.317Z,-9.01
2023-02-11T00:46:30.828Z,-8.99
2023-02-11T00:48:59.348Z,-8.97
2023-02-11T00:51:29.217Z,-8.98
2023-02-11T00:53:57.746Z,-9.01
2023-02-11T00:56:26.045Z,-9.05
2023-02-11T00:58:54.581Z,-9.09
2023-02-11T01:01:23.476Z,-9.15
2023-02-11T01:03:52.058Z,-9.21
2023-02-11T01:06:20.740Z,-9.26
2023-02-11T01:08:49.126Z,-9.29
2023-02-11T01:11:19.880Z,-9.33
2023-02-11T01:13:51.379Z,-9.38
2023-02-11T01:16:22.329Z,-9.38
2023-02-11T01:18:50.747Z,-9.35
2023-02-11T01:21:19.745Z,-9.30
2023-02-11T01:23:48.444Z,-9.27
2023-02-11T01:26:17.033Z,-9.27
2023-02-11T01:28:45.582Z,-9.30
2023-02-11T01:31:14.954Z,-9.36
2023-02-11T01:33:43.464Z,-9.41
2023-02-11T01:36:12.964Z,-9.44
2023-02-11T01:38:41.971Z,-9.50
2023-02-11T01:41:13.113Z,-9.55
2023-02-11T01:43:48.992Z,-9.57
2023-02-11T01:46:36.606Z,-9.52
2023-02-11T01:49:11.070Z,-9.48
2023-02-11T01:51:47.776Z,-9.46
2023-02-11T01:54:41.087Z,-9.41
2023-02-11T01:57:25.865Z,-9.39
2023-02-11T02:00:24.439Z,-9.36
2023-02-11T02:03:14.808Z,-9.28
2023-02-11T02:06:02.207Z,-9.27
2023-02-11T02:08:47.288Z,-9.26
2023-02-11T02:11:15.967Z,-9.30
2023-02-11T02:13:45.472Z,-9.36
2023-02-11T02:16:17.144Z,-9.39
2023-02-11T02:19:25.142Z,-9.46
2023-02-11T02:22:24.435Z,-9.50
2023-02-11T02:25:03.187Z,-9.51
2023-02-11T02:27:44.772Z,-9.50
2023-02-11T02:30:37.520Z,-9.46
2023-02-11T02:33:23.020Z,-9.34
2023-02-11T02:36:20.942Z,-9.26
2023-02-11T02:39:01.205Z,-9.18
2023-02-11T02:41:33.754Z,-9.14
2023-02-11T02:44:02.624Z,-9.09
2023-02-11T02:46:34.561Z,-8.99
2023-02-11T02:49:03.927Z,-8.92
2023-02-11T02:51:46.028Z,-8.91
2023-02-11T02:54:28.640Z,-8.87
2023-02-11T02:57:19.955Z,-8.82
2023-02-11T03:00:09.021Z,-8.81
2023-02-11T03:02:52.451Z,-8.78
2023-02-11T03:05:45.505Z,-8.75
2023-02-11T03:08:35.130Z,-8.69
2023-02-11T03:11:06.344Z,-8.57
2023-02-11T03:13:37.181Z,-8.51
2023-02-11T03:16:14.082Z,-8.46
2023-02-11T03:18:44.468Z,-8.35
2023-02-11T03:21:14.580Z,-8.27
2023-02-11T03:23:51.162Z,-8.20
2023-02-11T03:26:35.001Z,-8.13
2023-02-11T03:29:37.065Z,-8.07
2023-02-11T03:32:25.674Z,-8.00
2023-02-11T03:35:16.719Z,-7.97
2023-02-11T03:37:53.913Z,-7.90
2023-02-11T03:40:26.667Z,-7.87
2023-02-11T03:43:03.688Z,-7.84
2023-02-11T03:45:32.307Z,-7.81
2023-02-11T03:48:05.165Z,-7.79
2023-02-11T03:50:36.468Z,-7.75
2023-02-11T03:53:06.311Z,-7.67
2023-02-11T03:55:38.989Z,-7.57
2023-02-11T03:58:08.004Z,-7.50
2023-02-11T04:00:39.930Z,-7.39
2023-02-11T04:03:10.598Z,-7.32
2023-02-11T04:05:39.463Z,-7.28
2023-02-11T04:08:08.146Z,-7.24
2023-02-11T04:10:36.594Z,-7.22
2023-02-11T04:13:05.120Z,-7.17
2023-02-11T04:15:33.610Z,-7.16
2023-02-11T04:18:03.724Z,-7.25
2023-02-11T04:20:32.297Z,-7.29
2023-02-11T04:23:00.889Z,-7.31
2023-02-11T04:25:29.776Z,-7.33
2023-02-11T04:27:58.389Z,-7.33
2023-02-11T04:30:27.140Z,-7.30
2023-02-11T04:32:55.624Z,-7.24
2023-02-11T04:35:24.112Z,-7.16
2023-02-11T04:37:52.889Z,-7.10
2023-02-11T04:40:21.472Z,-7.03
2023-02-11T04:42:50.694Z,-6.95
2023-02-11T04:45:19.062Z,-6.87
2023-02-11T04:47:47.531Z,-6.81
2023-02-11T04:50:15.978Z,-6.76
2023-02-11T04:52:44.705Z,-6.70
2023-02-11T04:55:13.699Z,-6.66
2023-02-11T04:57:42.609Z,-6.63
2023-02-11T05:00:14.609Z,-6.63
2023-02-11T05:02:44.475Z,-6.60
2023-02-11T05:05:12.956Z,-6.57
2023-02-11T05:07:41.416Z,-6.55
2023-02-11T05:10:10.106Z,-6.48
2023-02-11T05:12:38.393Z,-6.49
2023-02-11T05:15:07.473Z,-6.50
2023-02-11T05:17:35.868Z,-6.48
2023-02-11T05:20:04.805Z,-6.47
2023-02-11T05:22:33.165Z,-6.42
2023-02-11T05:25:01.624Z,-6.44
2023-02-11T05:27:30.292Z,-6.36
2023-02-11T05:30:01.561Z,-6.30
2023-02-11T05:32:31.195Z,-6.28
2023-02-11T05:35:00.281Z,-6.25
2023-02-11T05:37:30.767Z,-6.18
2023-02-11T05:39:59.568Z,-6.14
2023-02-11T05:42:28.187Z,-6.11
2023-02-11T05:44:56.865Z,-6.07
2023-02-11T05:47:25.474Z,-6.03
2023-02-11T05:49:55.628Z,-5.99
2023-02-11T05:52:25.439Z,-5.93
2023-02-11T05:54:54.613Z,-5.87
2023-02-11T05:57:23.675Z,-5.83
2023-02-11T05:59:55.149Z,-5.78
2023-02-11T06:02:23.792Z,-5.75
2023-02-11T06:04:53.178Z,-5.69
2023-02-11T06:07:21.550Z,-5.67
2023-02-11T06:09:50.550Z,-5.64
2023-02-11T06:12:20.082Z,-5.61
2023-02-11T06:14:49.458Z,-5.56
2023-02-11T06:20:58.546Z,-5.49
2023-02-11T06:23:30.003Z,-5.49
2023-02-11T06:26:06.055Z,-5.45
2023-02-11T06:28:36.268Z,-5.39
2023-02-11T06:31:07.024Z,-5.32
2023-02-11T06:33:36.383Z,-5.28
2023-02-11T06:36:13.372Z,-5.27
2023-02-11T06:38:42.865Z,-5.27
2023-02-11T06:41:12.601Z,-5.28
2023-02-11T06:43:41.780Z,-5.33
2023-02-11T06:46:10.575Z,-5.36
2023-02-11T06:48:41.664Z,-5.41
2023-02-11T06:51:14.194Z,-5.45
2023-02-11T06:53:46.548Z,-5.47
2023-02-11T06:56:20.968Z,-5.50
2023-02-11T06:58:55.071Z,-5.47
2023-02-11T07:01:25.432Z,-5.44
2023-02-11T07:03:54.707Z,-5.43
2023-02-11T07:06:28.235Z,-5.39
2023-02-11T07:08:58.197Z,-5.31
2023-02-11T07:11:29.379Z,-5.25
2023-02-11T07:14:08.529Z,-5.16
2023-02-11T07:16:39.713Z,-5.07
2023-02-11T07:19:08.309Z,-5.02
2023-02-11T07:21:37.027Z,-5.00
2023-02-11T07:24:11.265Z,-4.95
2023-02-11T07:26:41.133Z,-4.95
2023-02-11T07:29:09.938Z,-4.93
2023-02-11T07:31:38.718Z,-4.92
2023-02-11T07:34:07.395Z,-4.90
2023-02-11T07:36:36.280Z,-4.83
2023-02-11T07:39:04.944Z,-4.75
2023-02-11T07:41:38.108Z,-4.68
2023-02-11T07:44:11.468Z,-4.58
2023-02-11T07:46:45.144Z,-4.49
2023-02-11T07:49:13.933Z,-4.39
2023-02-11T07:51:42.536Z,-4.34
2023-02-11T07:54:12.783Z,-4.32
2023-02-11T07:56:41.340Z,-4.27
2023-02-11T07:59:11.961Z,-4.23
2023-02-11T08:01:43.999Z,-4.20
2023-02-11T08:04:14.045Z,-4.15
2023-02-11T08:06:44.469Z,-4.13
2023-02-11T08:09:17.408Z,-4.12
2023-02-11T08:11:48.134Z,-4.10
2023-02-11T08:14:17.486Z,-4.04
2023-02-11T08:16:50.796Z,-3.96
2023-02-11T08:19:24.720Z,-3.89
2023-02-11T08:21:57.117Z,-3.79
2023-02-11T08:24:25.806Z,-3.68
2023-02-11T08:26:56.852Z,-3.58
2023-02-11T08:29:27.839Z,-3.46
2023-02-11T08:31:57.046Z,-3.32
2023-02-11T08:34:25.709Z,-3.18
2023-02-11T08:36:55.862Z,-3.06
2023-02-11T08:39:32.252Z,-2.98
2023-02-11T08:42:02.927Z,-2.88
2023-02-11T08:44:31.510Z,-2.78
2023-02-11T08:47:00.410Z,-2.71
2023-02-11T08:49:30.959Z,-2.62
2023-02-11T08:52:04.143Z,-2.52
2023-02-11T08:54:33.130Z,-2.43
2023-02-11T08:57:06.406Z,-2.34
2023-02-11T08:59:37.772Z,-2.23
2023-02-11T09:02:08.067Z,-2.12
2023-02-11T09:04:37.159Z,-2.03
2023-02-11T09:07:08.030Z,-1.92
2023-02-11T09:09:37.104Z,-1.82
2023-02-11T09:12:06.353Z,-1.68
2023-02-11T09:14:35.398Z,-1.54
2023-02-11T09:17:04.450Z,-1.36
2023-02-11T09:19:33.303Z,-1.15
2023-02-11T09:22:08.478Z,-0.95
2023-02-11T09:24:37.807Z,-0.72
2023-02-11T09:27:11.701Z,-0.52
2023-02-11T09:29:43.900Z,-0.32
2023-02-11T09:32:12.747Z,-0.09
2023-02-11T09:34:41.883Z,0.12
2023-02-11T09:37:10.978Z,0.31
2023-02-11T09:39:39.890Z,0.48
2023-02-11T09:42:11.837Z,0.58
2023-02-11T09:44:45.133Z,0.67
2023-02-11T09:47:32.142Z,0.74
2023-02-11T09:50:10.765Z,0.81
2023-02-11T09:52:48.085Z,0.88
2023-02-11T09:55:27.090Z,0.95
2023-02-11T09:58:00.935Z,1.07
2023-02-11T10:00:52.736Z,1.25
2023-02-11T10:03:36.264Z,1.41
2023-02-11T10:06:31.249Z,1.58
2023-02-11T10:09:11.109Z,1.74
2023-02-11T10:12:03.960Z,1.90
2023-02-11T10:14:54.255Z,1.96
2023-02-11T10:17:37.071Z,2.05
2023-02-11T10:20:32.070Z,2.20
2023-02-11T10:23:09.155Z,2.33
2023-02-11T10:25:46.476Z,2.39
2023-02-11T10:28:19.526Z,2.47
2023-02-11T10:31:15.423Z,2.58
2023-02-11T10:34:00.316Z,2.50
2023-02-11T10:36:39.219Z,2.47
2023-02-11T10:39:20.628Z,2.49
2023-02-11T10:42:05.926Z,2.55
2023-02-11T10:44:40.013Z,2.51
2023-02-11T10:47:28.756Z,2.50
2023-02-11T10:50:04.347Z,2.50
2023-02-11T10:52:32.797Z,2.46
2023-02-11T10:55:16.944Z,2.43
2023-02-11T10:57:59.617Z,2.38
2023-02-11T11:00:41.195Z,2.37
2023-02-11T11:03:22.006Z,2.36
2023-02-11T11:05:58.785Z,2.37
2023-02-11T11:08:47.926Z,2.41
2023-02-11T11:11:20.091Z,2.36
2023-02-11T11:13:54.522Z,2.34
2023-02-11T11:16:28.325Z,2.37
2023-02-11T11:19:06.844Z,2.37
2023-02-11T11:21:41.497Z,2.36
2023-02-11T11:24:31.903Z,2.32
2023-02-11T11:27:06.348Z,2.22
2023-02-11T18:45:51.096Z,-1.30
2023-02-11T18:48:20.498Z,-1.20
2023-02-11T18:50:49.176Z,-1.24
2023-02-11T18:53:17.852Z,-1.27
2023-02-11T18:55:47.625Z,-1.29
2023-02-11T18:58:16.348Z,-1.25
2023-02-11T19:00:47.857Z,-1.24
2023-02-11T19:03:18.227Z,-1.19
2023-02-11T19:05:51.222Z,-1.12
2023-02-11T19:08:19.960Z,-1.05
2023-02-11T19:10:50.066Z,-0.95
2023-02-11T19:13:34.265Z,-0.93
2023-02-11T19:16:08.197Z,-0.92
2023-02-11T19:18:39.137Z,-0.88
2023-02-11T19:21:11.334Z,-0.90
2023-02-11T19:23:40.176Z,-0.90
2023-02-11T19:26:08.885Z,-0.93
2023-02-11T19:28:40.055Z,-0.93
2023-02-11T19:31:09.881Z,-0.95
2023-02-11T19:33:38.493Z,-1.00
2023-02-11T19:36:08.213Z,-1.01
2023-02-11T19:38:39.287Z,-1.03
2023-02-11T19:41:08.013Z,-1.02
2023-02-11T19:43:37.124Z,-1.02
2023-02-11T19:46:05.992Z,-1.04
2023-02-11T19:48:35.003Z,-1.05
2023-02-11T19:51:12.107Z,-1.17
2023-02-11T19:53:42.026Z,-1.32
2023-02-11T19:56:11.309Z,-1.29
2023-02-11T19:58:42.280Z,-1.24
2023-02-11T20:01:14.608Z,-1.26
2023-02-11T20:03:43.533Z,-1.22
2023-02-11T20:06:14.877Z,-1.22
2023-02-11T20:08:44.729Z,-1.22
2023-02-11T20:11:16.033Z,-1.21
2023-02-11T20:13:44.605Z,-1.26
2023-02-11T20:16:16.749Z,-1.30
2023-02-11T20:18:46.810Z,-1.34
2023-02-11T20:21:22.126Z,-1.44
2023-02-11T20:23:51.331Z,-1.44
2023-02-11T20:26:21.658Z,-1.44
2023-02-11T20:28:52.295Z,-1.44
2023-02-11T20:31:24.372Z,-1.44
2023-02-11T20:33:56.622Z,-1.39
2023-02-11T20:36:39.360Z,-1.39
2023-02-11T20:39:11.260Z,-1.44
2023-02-11T20:41:40.239Z,-1.44
2023-02-11T20:44:10.986Z,-1.50
2023-02-11T20:46:46.633Z,-1.48
2023-02-11T20:49:19.250Z,-1.39
2023-02-11T20:51:49.534Z,-1.39
2023-02-11T20:54:20.571Z,-1.34
2023-02-11T20:56:51.300Z,-1.29
2023-02-11T20:59:22.754Z,-1.27
2023-02-11T21:01:55.124Z,-1.27
2023-02-11T21:04:29.821Z,-1.23
2023-02-11T21:07:01.823Z,-1.18
2023-02-11T21:09:33.060Z,-1.21
2023-02-11T21:12:04.553Z,-1.16
2023-02-11T21:14:34.277Z,-1.15
2023-02-11T21:17:02.951Z,-1.10
2023-02-11T21:19:33.806Z,-1.14
2023-02-11T21:22:03.665Z,-1.10
2023-02-11T21:24:32.192Z,-1.03
2023-02-11T21:27:01.080Z,-0.97
2023-02-11T21:29:30.522Z,-1.02
2023-02-11T21:31:59.391Z,-0.93
2023-02-11T21:34:29.321Z,-0.81
2023-02-11T21:36:58.388Z,-0.67
2023-02-11T21:39:26.757Z,-0.55
2023-02-11T21:41:56.166Z,-0.44
2023-02-11T21:44:24.658Z,-0.35
2023-02-11T21:46:53.303Z,-0.33
2023-02-11T21:49:21.602Z,-0.27
2023-02-11T21:51:49.992Z,-0.24
2023-02-11T21:54:19.180Z,-0.19
2023-02-11T21:56:50.387Z,-0.25
2023-02-11T21:59:18.806Z,-0.24
2023-02-11T22:01:47.318Z,-0.17
2023-02-11T22:04:15.700Z,-0.23
2023-02-11T22:06:45.168Z,-0.22
2023-02-11T22:09:13.557Z,-0.30
2023-02-11T22:11:41.841Z,-0.30
2023-02-11T22:14:10.305Z,-0.32
2023-02-11T22:16:38.959Z,-0.31
2023-02-11T22:19:07.924Z,-0.30
2023-02-11T22:21:36.809Z,-0.29
2023-02-11T22:24:05.865Z,-0.25
2023-02-11T22:26:34.253Z,-0.19
2023-02-11T22:29:02.738Z,-0.18
2023-02-11T22:31:33.485Z,-0.12
2023-02-11T22:34:03.855Z,-0.12
2023-02-11T22:36:37.692Z,-0.09
2023-02-11T22:39:12.618Z,-0.07
2023-02-11T22:41:42.281Z,-0.02
2023-02-11T22:44:10.711Z,0.06
2023-02-11T22:46:39.636Z,0.09
2023-02-11T22:49:07.969Z,0.13
2023-02-11T22:51:36.452Z,0.23
2023-02-11T22:54:07.446Z,0.28
2023-02-11T22:56:36.281Z,0.31
2023-02-11T22:59:07.728Z,0.33
2023-02-11T23:01:36.294Z,0.37
2023-02-11T23:04:06.695Z,0.39
2023-02-11T23:06:35.542Z,0.35
2023-02-11T23:09:05.705Z,0.36
2023-02-11T23:11:34.551Z,0.32
2023-02-11T23:14:03.635Z,0.25
2023-02-11T23:16:34.767Z,0.31
2023-02-11T23:19:07.658Z,0.30
2023-02-11T23:21:38.567Z,0.19
2023-02-11T23:24:12.609Z,0.19
2023-02-11T23:26:42.627Z,0.20
2023-02-11T23:29:11.416Z,0.17
2023-02-11T23:31:43.604Z,0.12
2023-02-11T23:34:17.360Z,0.12
2023-02-11T23:36:45.970Z,0.16
2023-02-11T23:39:17.143Z,0.16
2023-02-11T23:41:46.223Z,0.10
2023-02-11T23:44:14.594Z,0.12
2023-02-11T23:46:43.197Z,0.16
2023-02-11T23:49:11.662Z,0.27
2023-02-11T23:51:40.161Z,0.29
2023-02-11T23:54:14.661Z,0.27
2023-02-11T23:56:42.954Z,0.22
2023-02-11T23:59:11.934Z,0.18
